sensor_id;sensor_type;location;lat;lon;timestamp;P1;durP1;ratioP1;P2;durP2;ratioP2
10166;SDS011;62970;53.130;8.244;2022-11-14T00:01:20;24.67;;;20.37;;
10166;SDS011;62970;53.130;8.244;2022-11-14T00:03:49;22.87;;;20.00;;
10166;SDS011;62970;53.130;8.244;2022-11-14T00:06:19;23.60;;;20.30;;
10166;SDS011;62970;53.130;8.244;2022-11-14T00:08:48;22.63;;;20.03;;
10166;SDS011;62970;53.130;8.244;2022-11-14T00:11:22;24.50;;;20.77;;
10166;SDS011;62970;53.130;8.244;2022-11-14T00:13:51;24.47;;;21.37;;
10166;SDS011;62970;53.130;8.244;2022-11-14T00:16:22;24.23;;;20.77;;
10166;SDS011;62970;53.130;8.244;2022-11-14T00:18:52;23.60;;;19.73;;
10166;SDS011;62970;53.130;8.244;2022-11-14T00:21:24;25.60;;;20.90;;
10166;SDS011;62970;53.130;8.244;2022-11-14T00:23:53;22.50;;;19.77;;
10166;SDS011;62970;53.130;8.244;2022-11-14T00:26:25;24.93;;;20.30;;
10166;SDS011;62970;53.130;8.244;2022-11-14T00:28:55;22.10;;;19.50;;
10166;SDS011;62970;53.130;8.244;2022-11-14T00:31:24;24.07;;;19.90;;
10166;SDS011;62970;53.130;8.244;2022-11-14T00:33:53;22.83;;;20.33;;
10166;SDS011;62970;53.130;8.244;2022-11-14T00:36:23;25.73;;;21.23;;
10166;SDS011;62970;53.130;8.244;2022-11-14T00:38:52;22.67;;;20.23;;
10166;SDS011;62970;53.130;8.244;2022-11-14T00:41:25;23.07;;;20.20;;
10166;SDS011;62970;53.130;8.244;2022-11-14T00:43:54;23.17;;;20.33;;
10166;SDS011;62970;53.130;8.244;2022-11-14T00:46:25;25.47;;;21.30;;
10166;SDS011;62970;53.130;8.244;2022-11-14T00:48:54;25.43;;;21.17;;
10166;SDS011;62970;53.130;8.244;2022-11-14T00:51:23;24.80;;;21.90;;
10166;SDS011;62970;53.130;8.244;2022-11-14T00:53:53;24.90;;;21.27;;
10166;SDS011;62970;53.130;8.244;2022-11-14T00:56:26;24.93;;;21.93;;
10166;SDS011;62970;53.130;8.244;2022-11-14T00:58:55;26.23;;;22.13;;
10166;SDS011;62970;53.130;8.244;2022-11-14T01:01:24;25.47;;;22.37;;
10166;SDS011;62970;53.130;8.244;2022-11-14T01:03:54;24.30;;;20.83;;
10166;SDS011;62970;53.130;8.244;2022-11-14T01:06:23;23.30;;;20.33;;
10166;SDS011;62970;53.130;8.244;2022-11-14T01:08:53;26.07;;;22.23;;
10166;SDS011;62970;53.130;8.244;2022-11-14T01:13:59;25.37;;;20.63;;
10166;SDS011;62970;53.130;8.244;2022-11-14T01:16:29;26.87;;;22.70;;
10166;SDS011;62970;53.130;8.244;2022-11-14T01:19:00;25.47;;;21.27;;
10166;SDS011;62970;53.130;8.244;2022-11-14T01:21:30;25.87;;;22.00;;
10166;SDS011;62970;53.130;8.244;2022-11-14T01:23:59;26.70;;;21.70;;
10166;SDS011;62970;53.130;8.244;2022-11-14T01:26:31;24.93;;;21.43;;
10166;SDS011;62970;53.130;8.244;2022-11-14T01:29:00;24.47;;;21.17;;
10166;SDS011;62970;53.130;8.244;2022-11-14T01:31:30;25.83;;;20.87;;
10166;SDS011;62970;53.130;8.244;2022-11-14T01:33:59;24.63;;;21.30;;
10166;SDS011;62970;53.130;8.244;2022-11-14T01:36:28;26.23;;;21.40;;
10166;SDS011;62970;53.130;8.244;2022-11-14T01:38:57;25.77;;;20.67;;
10166;SDS011;62970;53.130;8.244;2022-11-14T01:41:26;25.80;;;21.60;;
10166;SDS011;62970;53.130;8.244;2022-11-14T01:43:58;25.20;;;20.97;;
10166;SDS011;62970;53.130;8.244;2022-11-14T01:46:29;25.97;;;21.47;;
10166;SDS011;62970;53.130;8.244;2022-11-14T01:49:02;26.00;;;21.73;;
10166;SDS011;62970;53.130;8.244;2022-11-14T01:51:42;26.23;;;20.53;;
10166;SDS011;62970;53.130;8.244;2022-11-14T01:54:17;25.33;;;21.40;;
10166;SDS011;62970;53.130;8.244;2022-11-14T01:56:54;23.53;;;19.53;;
10166;SDS011;62970;53.130;8.244;2022-11-14T01:59:29;24.40;;;20.73;;
10166;SDS011;62970;53.130;8.244;2022-11-14T02:02:03;24.37;;;19.97;;
10166;SDS011;62970;53.130;8.244;2022-11-14T02:04:40;23.67;;;19.93;;
10166;SDS011;62970;53.130;8.244;2022-11-14T02:07:14;24.23;;;20.97;;
10166;SDS011;62970;53.130;8.244;2022-11-14T02:09:45;23.07;;;19.10;;
10166;SDS011;62970;53.130;8.244;2022-11-14T02:12:16;23.63;;;19.30;;
10166;SDS011;62970;53.130;8.244;2022-11-14T02:14:49;24.43;;;20.33;;
10166;SDS011;62970;53.130;8.244;2022-11-14T02:17:24;23.17;;;19.63;;
10166;SDS011;62970;53.130;8.244;2022-11-14T02:19:55;22.97;;;19.50;;
10166;SDS011;62970;53.130;8.244;2022-11-14T02:22:33;24.87;;;20.33;;
10166;SDS011;62970;53.130;8.244;2022-11-14T02:25:03;24.50;;;19.53;;
10166;SDS011;62970;53.130;8.244;2022-11-14T02:27:36;23.10;;;19.63;;
10166;SDS011;62970;53.130;8.244;2022-11-14T02:30:07;26.97;;;20.67;;
10166;SDS011;62970;53.130;8.244;2022-11-14T02:32:41;23.10;;;19.67;;
10166;SDS011;62970;53.130;8.244;2022-11-14T02:35:13;25.43;;;21.33;;
10166;SDS011;62970;53.130;8.244;2022-11-14T02:37:42;27.63;;;21.77;;
10166;SDS011;62970;53.130;8.244;2022-11-14T02:40:12;25.67;;;20.80;;
10166;SDS011;62970;53.130;8.244;2022-11-14T02:42:41;24.53;;;20.40;;
10166;SDS011;62970;53.130;8.244;2022-11-14T02:45:10;24.20;;;19.30;;
10166;SDS011;62970;53.130;8.244;2022-11-14T02:47:40;23.70;;;19.73;;
10166;SDS011;62970;53.130;8.244;2022-11-14T02:50:13;23.40;;;19.93;;
10166;SDS011;62970;53.130;8.244;2022-11-14T02:52:43;24.90;;;18.80;;
10166;SDS011;62970;53.130;8.244;2022-11-14T02:55:13;25.37;;;20.40;;
10166;SDS011;62970;53.130;8.244;2022-11-14T02:57:43;25.77;;;21.30;;
10166;SDS011;62970;53.130;8.244;2022-11-14T03:00:13;25.63;;;20.73;;
10166;SDS011;62970;53.130;8.244;2022-11-14T03:02:45;27.47;;;21.43;;
10166;SDS011;62970;53.130;8.244;2022-11-14T03:05:17;25.37;;;20.93;;
10166;SDS011;62970;53.130;8.244;2022-11-14T03:07:47;25.30;;;21.03;;
10166;SDS011;62970;53.130;8.244;2022-11-14T03:10:20;28.17;;;22.50;;
10166;SDS011;62970;53.130;8.244;2022-11-14T03:12:52;24.53;;;20.63;;
10166;SDS011;62970;53.130;8.244;2022-11-14T03:15:23;25.47;;;20.83;;
10166;SDS011;62970;53.130;8.244;2022-11-14T03:17:52;26.00;;;21.73;;
10166;SDS011;62970;53.130;8.244;2022-11-14T03:20:24;24.83;;;20.17;;
10166;SDS011;62970;53.130;8.244;2022-11-14T03:22:53;24.37;;;20.27;;
10166;SDS011;62970;53.130;8.244;2022-11-14T03:25:22;25.10;;;20.73;;
10166;SDS011;62970;53.130;8.244;2022-11-14T03:27:52;25.90;;;21.57;;
10166;SDS011;62970;53.130;8.244;2022-11-14T03:30:22;26.27;;;21.17;;
10166;SDS011;62970;53.130;8.244;2022-11-14T03:32:51;25.63;;;20.57;;
10166;SDS011;62970;53.130;8.244;2022-11-14T03:35:25;24.27;;;20.27;;
10166;SDS011;62970;53.130;8.244;2022-11-14T03:37:54;26.53;;;20.77;;
10166;SDS011;62970;53.130;8.244;2022-11-14T03:40:24;26.67;;;20.43;;
10166;SDS011;62970;53.130;8.244;2022-11-14T03:42:53;24.57;;;20.53;;
10166;SDS011;62970;53.130;8.244;2022-11-14T03:45:24;26.63;;;21.33;;
10166;SDS011;62970;53.130;8.244;2022-11-14T03:47:53;24.87;;;19.67;;
10166;SDS011;62970;53.130;8.244;2022-11-14T03:50:25;25.37;;;19.53;;
10166;SDS011;62970;53.130;8.244;2022-11-14T03:52:54;24.07;;;19.07;;
10166;SDS011;62970;53.130;8.244;2022-11-14T03:55:24;28.83;;;22.10;;
10166;SDS011;62970;53.130;8.244;2022-11-14T03:57:53;24.00;;;19.87;;
10166;SDS011;62970;53.130;8.244;2022-11-14T04:00:22;25.10;;;20.90;;
10166;SDS011;62970;53.130;8.244;2022-11-14T04:02:52;25.80;;;20.17;;
10166;SDS011;62970;53.130;8.244;2022-11-14T04:05:26;25.07;;;21.40;;
10166;SDS011;62970;53.130;8.244;2022-11-14T04:07:55;25.23;;;20.27;;
10166;SDS011;62970;53.130;8.244;2022-11-14T04:10:25;24.30;;;19.50;;
10166;SDS011;62970;53.130;8.244;2022-11-14T04:12:54;26.70;;;21.60;;
10166;SDS011;62970;53.130;8.244;2022-11-14T04:15:23;25.50;;;20.60;;
10166;SDS011;62970;53.130;8.244;2022-11-14T04:17:55;25.10;;;20.10;;
10166;SDS011;62970;53.130;8.244;2022-11-14T04:20:27;24.77;;;20.00;;
10166;SDS011;62970;53.130;8.244;2022-11-14T04:22:56;25.53;;;21.00;;
10166;SDS011;62970;53.130;8.244;2022-11-14T04:25:25;24.67;;;20.43;;
10166;SDS011;62970;53.130;8.244;2022-11-14T04:27:55;26.33;;;21.20;;
10166;SDS011;62970;53.130;8.244;2022-11-14T04:30:24;25.17;;;20.60;;
10166;SDS011;62970;53.130;8.244;2022-11-14T04:32:54;26.60;;;20.53;;
10166;SDS011;62970;53.130;8.244;2022-11-14T04:35:23;26.73;;;20.47;;
10166;SDS011;62970;53.130;8.244;2022-11-14T04:37:55;24.53;;;19.50;;
10166;SDS011;62970;53.130;8.244;2022-11-14T04:40:28;27.33;;;21.40;;
10166;SDS011;62970;53.130;8.244;2022-11-14T04:42:59;27.23;;;20.73;;
10166;SDS011;62970;53.130;8.244;2022-11-14T04:45:30;27.97;;;21.40;;
10166;SDS011;62970;53.130;8.244;2022-11-14T04:47:59;27.93;;;20.60;;
10166;SDS011;62970;53.130;8.244;2022-11-14T04:50:31;26.50;;;20.70;;
10166;SDS011;62970;53.130;8.244;2022-11-14T04:53:00;25.63;;;20.87;;
10166;SDS011;62970;53.130;8.244;2022-11-14T04:55:30;27.40;;;20.37;;
10166;SDS011;62970;53.130;8.244;2022-11-14T04:58:00;25.93;;;19.93;;
10166;SDS011;62970;53.130;8.244;2022-11-14T05:00:30;25.27;;;19.17;;
10166;SDS011;62970;53.130;8.244;2022-11-14T05:03:00;25.70;;;19.87;;
10166;SDS011;62970;53.130;8.244;2022-11-14T05:05:32;25.50;;;20.57;;
10166;SDS011;62970;53.130;8.244;2022-11-14T05:08:02;24.93;;;19.80;;
10166;SDS011;62970;53.130;8.244;2022-11-14T05:10:31;25.70;;;20.30;;
10166;SDS011;62970;53.130;8.244;2022-11-14T05:13:00;28.47;;;21.57;;
10166;SDS011;62970;53.130;8.244;2022-11-14T05:15:30;25.90;;;20.50;;
10166;SDS011;62970;53.130;8.244;2022-11-14T05:18:00;26.40;;;21.00;;
10166;SDS011;62970;53.130;8.244;2022-11-14T05:20:29;28.50;;;22.00;;
10166;SDS011;62970;53.130;8.244;2022-11-14T05:23:03;29.13;;;22.10;;
10166;SDS011;62970;53.130;8.244;2022-11-14T05:25:32;26.93;;;20.53;;
10166;SDS011;62970;53.130;8.244;2022-11-14T05:28:03;26.73;;;20.80;;
10166;SDS011;62970;53.130;8.244;2022-11-14T05:30:33;26.00;;;21.23;;
10166;SDS011;62970;53.130;8.244;2022-11-14T05:33:02;27.67;;;20.47;;
10166;SDS011;62970;53.130;8.244;2022-11-14T05:35:31;27.90;;;21.83;;
10166;SDS011;62970;53.130;8.244;2022-11-14T05:38:03;26.90;;;21.27;;
10166;SDS011;62970;53.130;8.244;2022-11-14T05:40:32;27.00;;;21.07;;
10166;SDS011;62970;53.130;8.244;2022-11-14T05:43:01;26.83;;;20.90;;
10166;SDS011;62970;53.130;8.244;2022-11-14T05:45:31;29.83;;;21.73;;
10166;SDS011;62970;53.130;8.244;2022-11-14T05:48:00;27.97;;;21.57;;
10166;SDS011;62970;53.130;8.244;2022-11-14T05:50:29;26.63;;;21.07;;
10166;SDS011;62970;53.130;8.244;2022-11-14T05:52:58;28.30;;;22.07;;
10166;SDS011;62970;53.130;8.244;2022-11-14T05:55:31;27.47;;;21.40;;
10166;SDS011;62970;53.130;8.244;2022-11-14T05:58:01;26.37;;;21.30;;
10166;SDS011;62970;53.130;8.244;2022-11-14T06:00:31;26.80;;;20.80;;
10166;SDS011;62970;53.130;8.244;2022-11-14T06:03:00;27.97;;;21.83;;
10166;SDS011;62970;53.130;8.244;2022-11-14T06:05:29;28.97;;;22.57;;
10166;SDS011;62970;53.130;8.244;2022-11-14T06:07:58;29.30;;;21.63;;
10166;SDS011;62970;53.130;8.244;2022-11-14T06:10:30;29.60;;;22.07;;
10166;SDS011;62970;53.130;8.244;2022-11-14T06:13:01;29.67;;;21.40;;
10166;SDS011;62970;53.130;8.244;2022-11-14T06:15:31;27.80;;;21.73;;
10166;SDS011;62970;53.130;8.244;2022-11-14T06:18:01;28.03;;;22.03;;
10166;SDS011;62970;53.130;8.244;2022-11-14T06:20:30;26.93;;;21.10;;
10166;SDS011;62970;53.130;8.244;2022-11-14T06:22:59;29.30;;;22.63;;
10166;SDS011;62970;53.130;8.244;2022-11-14T06:25:31;27.20;;;21.63;;
10166;SDS011;62970;53.130;8.244;2022-11-14T06:28:00;28.13;;;21.60;;
10166;SDS011;62970;53.130;8.244;2022-11-14T06:30:30;27.43;;;20.27;;
10166;SDS011;62970;53.130;8.244;2022-11-14T06:33:00;28.30;;;21.63;;
10166;SDS011;62970;53.130;8.244;2022-11-14T06:35:29;27.03;;;21.00;;
10166;SDS011;62970;53.130;8.244;2022-11-14T06:37:59;27.10;;;20.93;;
10166;SDS011;62970;53.130;8.244;2022-11-14T06:40:31;27.77;;;20.80;;
10166;SDS011;62970;53.130;8.244;2022-11-14T06:43:01;26.33;;;20.60;;
10166;SDS011;62970;53.130;8.244;2022-11-14T06:45:30;26.73;;;21.27;;
10166;SDS011;62970;53.130;8.244;2022-11-14T06:47:59;27.33;;;21.30;;
10166;SDS011;62970;53.130;8.244;2022-11-14T06:50:28;27.53;;;21.80;;
10166;SDS011;62970;53.130;8.244;2022-11-14T06:52:57;28.43;;;22.93;;
10166;SDS011;62970;53.130;8.244;2022-11-14T06:55:26;29.87;;;22.10;;
10166;SDS011;62970;53.130;8.244;2022-11-14T06:57:58;28.57;;;22.17;;
10166;SDS011;62970;53.130;8.244;2022-11-14T07:00:28;28.13;;;21.50;;
10166;SDS011;62970;53.130;8.244;2022-11-14T07:02:57;31.03;;;22.73;;
10166;SDS011;62970;53.130;8.244;2022-11-14T07:05:27;31.23;;;22.30;;
10166;SDS011;62970;53.130;8.244;2022-11-14T07:07:56;30.07;;;21.93;;
10166;SDS011;62970;53.130;8.244;2022-11-14T07:10:26;31.23;;;22.60;;
10166;SDS011;62970;53.130;8.244;2022-11-14T07:12:55;29.70;;;22.00;;
10166;SDS011;62970;53.130;8.244;2022-11-14T07:15:27;26.93;;;20.50;;
10166;SDS011;62970;53.130;8.244;2022-11-14T07:17:57;28.40;;;21.83;;
10166;SDS011;62970;53.130;8.244;2022-11-14T07:20:26;27.63;;;21.63;;
10166;SDS011;62970;53.130;8.244;2022-11-14T07:22:56;27.17;;;20.93;;
10166;SDS011;62970;53.130;8.244;2022-11-14T07:25:25;28.87;;;22.40;;
10166;SDS011;62970;53.130;8.244;2022-11-14T07:27:55;27.03;;;21.23;;
10166;SDS011;62970;53.130;8.244;2022-11-14T07:30:28;30.03;;;21.93;;
10166;SDS011;62970;53.130;8.244;2022-11-14T07:32:57;31.77;;;21.73;;
10166;SDS011;62970;53.130;8.244;2022-11-14T07:35:26;31.53;;;23.00;;
10166;SDS011;62970;53.130;8.244;2022-11-14T07:37:59;28.90;;;21.63;;
10166;SDS011;62970;53.130;8.244;2022-11-14T07:40:30;31.47;;;22.67;;
10166;SDS011;62970;53.130;8.244;2022-11-14T07:43:01;32.33;;;22.63;;
10166;SDS011;62970;53.130;8.244;2022-11-14T07:45:31;29.47;;;21.27;;
10166;SDS011;62970;53.130;8.244;2022-11-14T07:48:00;29.87;;;21.17;;
10166;SDS011;62970;53.130;8.244;2022-11-14T07:50:30;29.70;;;22.73;;
10166;SDS011;62970;53.130;8.244;2022-11-14T07:53:02;29.20;;;22.17;;
10166;SDS011;62970;53.130;8.244;2022-11-14T07:55:34;29.27;;;22.27;;
10166;SDS011;62970;53.130;8.244;2022-11-14T07:58:06;32.73;;;22.87;;
10166;SDS011;62970;53.130;8.244;2022-11-14T08:00:35;30.30;;;22.00;;
10166;SDS011;62970;53.130;8.244;2022-11-14T08:03:05;29.87;;;22.77;;
10166;SDS011;62970;53.130;8.244;2022-11-14T08:05:35;29.43;;;22.13;;
10166;SDS011;62970;53.130;8.244;2022-11-14T08:08:04;32.03;;;23.60;;
10166;SDS011;62970;53.130;8.244;2022-11-14T08:10:37;30.90;;;21.63;;
10166;SDS011;62970;53.130;8.244;2022-11-14T08:13:09;34.47;;;24.13;;
10166;SDS011;62970;53.130;8.244;2022-11-14T08:15:39;31.73;;;22.27;;
10166;SDS011;62970;53.130;8.244;2022-11-14T08:18:11;32.77;;;23.83;;
10166;SDS011;62970;53.130;8.244;2022-11-14T08:20:41;33.13;;;23.90;;
10166;SDS011;62970;53.130;8.244;2022-11-14T08:23:11;30.13;;;23.00;;
10166;SDS011;62970;53.130;8.244;2022-11-14T08:25:41;31.37;;;22.53;;
10166;SDS011;62970;53.130;8.244;2022-11-14T08:28:13;30.03;;;22.33;;
10166;SDS011;62970;53.130;8.244;2022-11-14T08:30:42;30.77;;;22.03;;
10166;SDS011;62970;53.130;8.244;2022-11-14T08:33:11;30.63;;;22.07;;
10166;SDS011;62970;53.130;8.244;2022-11-14T08:35:40;30.53;;;22.07;;
10166;SDS011;62970;53.130;8.244;2022-11-14T08:38:10;28.53;;;20.60;;
10166;SDS011;62970;53.130;8.244;2022-11-14T08:40:39;32.47;;;22.57;;
10166;SDS011;62970;53.130;8.244;2022-11-14T08:43:09;33.17;;;23.73;;
10166;SDS011;62970;53.130;8.244;2022-11-14T08:45:43;30.10;;;22.87;;
10166;SDS011;62970;53.130;8.244;2022-11-14T08:48:12;33.83;;;23.27;;
10166;SDS011;62970;53.130;8.244;2022-11-14T08:50:41;32.53;;;22.53;;
10166;SDS011;62970;53.130;8.244;2022-11-14T08:53:11;33.83;;;23.53;;
10166;SDS011;62970;53.130;8.244;2022-11-14T08:55:42;39.33;;;23.30;;
10166;SDS011;62970;53.130;8.244;2022-11-14T08:58:15;34.27;;;23.80;;
10166;SDS011;62970;53.130;8.244;2022-11-14T09:00:45;36.20;;;25.03;;
10166;SDS011;62970;53.130;8.244;2022-11-14T09:03:16;34.17;;;23.97;;
10166;SDS011;62970;53.130;8.244;2022-11-14T09:05:50;34.50;;;23.53;;
10166;SDS011;62970;53.130;8.244;2022-11-14T09:08:20;35.57;;;24.23;;
10166;SDS011;62970;53.130;8.244;2022-11-14T09:10:50;34.10;;;24.93;;
10166;SDS011;62970;53.130;8.244;2022-11-14T09:13:22;34.97;;;24.77;;
10166;SDS011;62970;53.130;8.244;2022-11-14T09:15:52;32.90;;;24.07;;
10166;SDS011;62970;53.130;8.244;2022-11-14T09:18:22;36.57;;;24.60;;
10166;SDS011;62970;53.130;8.244;2022-11-14T09:20:51;33.07;;;24.03;;
10166;SDS011;62970;53.130;8.244;2022-11-14T09:23:20;31.37;;;22.83;;
10166;SDS011;62970;53.130;8.244;2022-11-14T09:25:51;32.97;;;23.83;;
10166;SDS011;62970;53.130;8.244;2022-11-14T09:28:24;32.13;;;24.10;;
10166;SDS011;62970;53.130;8.244;2022-11-14T09:30:58;29.23;;;22.40;;
10166;SDS011;62970;53.130;8.244;2022-11-14T09:33:28;31.37;;;23.27;;
10166;SDS011;62970;53.130;8.244;2022-11-14T09:35:58;32.67;;;22.73;;
10166;SDS011;62970;53.130;8.244;2022-11-14T09:38:28;32.50;;;23.93;;
10166;SDS011;62970;53.130;8.244;2022-11-14T09:41:01;32.97;;;24.07;;
10166;SDS011;62970;53.130;8.244;2022-11-14T09:43:52;34.90;;;23.97;;
10166;SDS011;62970;53.130;8.244;2022-11-14T09:46:52;32.77;;;23.30;;
10166;SDS011;62970;53.130;8.244;2022-11-14T09:49:28;34.03;;;24.20;;
10166;SDS011;62970;53.130;8.244;2022-11-14T09:52:04;36.10;;;24.83;;
10166;SDS011;62970;53.130;8.244;2022-11-14T09:54:47;29.97;;;22.40;;
10166;SDS011;62970;53.130;8.244;2022-11-14T09:57:23;31.67;;;23.27;;
10166;SDS011;62970;53.130;8.244;2022-11-14T09:59:56;34.13;;;24.20;;
10166;SDS011;62970;53.130;8.244;2022-11-14T10:02:33;36.30;;;24.17;;
10166;SDS011;62970;53.130;8.244;2022-11-14T10:05:17;31.93;;;23.10;;
10166;SDS011;62970;53.130;8.244;2022-11-14T10:08:13;35.47;;;24.83;;
10166;SDS011;62970;53.130;8.244;2022-11-14T10:11:00;33.37;;;23.17;;
10166;SDS011;62970;53.130;8.244;2022-11-14T10:13:39;31.53;;;22.97;;
10166;SDS011;62970;53.130;8.244;2022-11-14T10:16:35;28.13;;;21.00;;
10166;SDS011;62970;53.130;8.244;2022-11-14T10:19:17;30.80;;;22.30;;
10166;SDS011;62970;53.130;8.244;2022-11-14T10:22:00;31.63;;;22.70;;
10166;SDS011;62970;53.130;8.244;2022-11-14T10:24:56;32.30;;;23.10;;
10166;SDS011;62970;53.130;8.244;2022-11-14T10:27:44;30.13;;;22.60;;
10166;SDS011;62970;53.130;8.244;2022-11-14T10:30:34;28.10;;;20.70;;
10166;SDS011;62970;53.130;8.244;2022-11-14T10:36:05;31.03;;;22.13;;
10166;SDS011;62970;53.130;8.244;2022-11-14T10:38:45;31.53;;;21.80;;
10166;SDS011;62970;53.130;8.244;2022-11-14T10:41:21;29.03;;;21.70;;
10166;SDS011;62970;53.130;8.244;2022-11-14T10:43:54;33.03;;;22.77;;
10166;SDS011;62970;53.130;8.244;2022-11-14T10:46:25;28.27;;;21.80;;
10166;SDS011;62970;53.130;8.244;2022-11-14T10:49:10;30.57;;;21.77;;
10166;SDS011;62970;53.130;8.244;2022-11-14T10:51:46;29.10;;;22.10;;
10166;SDS011;62970;53.130;8.244;2022-11-14T10:54:20;27.87;;;22.30;;
10166;SDS011;62970;53.130;8.244;2022-11-14T10:56:55;30.47;;;22.67;;
10166;SDS011;62970;53.130;8.244;2022-11-14T10:59:24;28.20;;;21.07;;
10166;SDS011;62970;53.130;8.244;2022-11-14T11:01:57;28.40;;;21.97;;
10166;SDS011;62970;53.130;8.244;2022-11-14T11:04:31;29.17;;;21.67;;
10166;SDS011;62970;53.130;8.244;2022-11-14T11:07:16;29.70;;;21.50;;
10166;SDS011;62970;53.130;8.244;2022-11-14T11:10:02;28.10;;;21.60;;
10166;SDS011;62970;53.130;8.244;2022-11-14T11:12:45;27.77;;;21.10;;
10166;SDS011;62970;53.130;8.244;2022-11-14T11:15:19;26.23;;;20.73;;
10166;SDS011;62970;53.130;8.244;2022-11-14T11:17:52;30.00;;;22.53;;
10166;SDS011;62970;53.130;8.244;2022-11-14T11:20:28;30.67;;;23.07;;
10166;SDS011;62970;53.130;8.244;2022-11-14T11:23:03;32.57;;;22.73;;
10166;SDS011;62970;53.130;8.244;2022-11-14T11:25:35;26.53;;;20.83;;
10166;SDS011;62970;53.130;8.244;2022-11-14T11:28:11;30.40;;;22.17;;
10166;SDS011;62970;53.130;8.244;2022-11-14T11:30:53;26.50;;;21.00;;
10166;SDS011;62970;53.130;8.244;2022-11-14T11:33:26;29.67;;;21.17;;
10166;SDS011;62970;53.130;8.244;2022-11-14T11:36:01;26.70;;;21.30;;
10166;SDS011;62970;53.130;8.244;2022-11-14T11:38:44;27.77;;;20.80;;
10166;SDS011;62970;53.130;8.244;2022-11-14T11:41:20;27.93;;;21.00;;
10166;SDS011;62970;53.130;8.244;2022-11-14T11:43:55;28.93;;;19.97;;
10166;SDS011;62970;53.130;8.244;2022-11-14T11:46:30;25.07;;;19.80;;
10166;SDS011;62970;53.130;8.244;2022-11-14T11:49:15;26.63;;;19.87;;
10166;SDS011;62970;53.130;8.244;2022-11-14T11:51:55;27.87;;;20.27;;
10166;SDS011;62970;53.130;8.244;2022-11-14T11:54:35;28.53;;;21.30;;
10166;SDS011;62970;53.130;8.244;2022-11-14T11:57:21;26.53;;;20.10;;
10166;SDS011;62970;53.130;8.244;2022-11-14T12:00:04;27.97;;;20.30;;
10166;SDS011;62970;53.130;8.244;2022-11-14T12:02:41;26.43;;;19.70;;
10166;SDS011;62970;53.130;8.244;2022-11-14T12:05:15;25.90;;;19.70;;
10166;SDS011;62970;53.130;8.244;2022-11-14T12:07:57;26.43;;;19.83;;
10166;SDS011;62970;53.130;8.244;2022-11-14T12:10:31;24.70;;;19.80;;
10166;SDS011;62970;53.130;8.244;2022-11-14T12:13:20;25.00;;;18.67;;
10166;SDS011;62970;53.130;8.244;2022-11-14T12:16:16;25.57;;;19.10;;
10166;SDS011;62970;53.130;8.244;2022-11-14T12:19:12;25.43;;;19.57;;
10166;SDS011;62970;53.130;8.244;2022-11-14T12:22:10;26.40;;;20.77;;
10166;SDS011;62970;53.130;8.244;2022-11-14T12:28:30;28.60;;;21.20;;
10166;SDS011;62970;53.130;8.244;2022-11-14T12:31:23;26.97;;;20.17;;
10166;SDS011;62970;53.130;8.244;2022-11-14T12:33:55;26.13;;;20.30;;
10166;SDS011;62970;53.130;8.244;2022-11-14T12:36:28;26.87;;;20.90;;
10166;SDS011;62970;53.130;8.244;2022-11-14T12:39:05;26.77;;;19.50;;
10166;SDS011;62970;53.130;8.244;2022-11-14T12:41:50;27.60;;;20.87;;
10166;SDS011;62970;53.130;8.244;2022-11-14T12:44:35;24.27;;;19.07;;
10166;SDS011;62970;53.130;8.244;2022-11-14T12:47:13;24.33;;;18.87;;
10166;SDS011;62970;53.130;8.244;2022-11-14T12:49:58;27.53;;;19.77;;
10166;SDS011;62970;53.130;8.244;2022-11-14T12:52:48;25.37;;;18.67;;
10166;SDS011;62970;53.130;8.244;2022-11-14T12:58:49;28.43;;;20.03;;
10166;SDS011;62970;53.130;8.244;2022-11-14T13:01:58;23.50;;;18.30;;
10166;SDS011;62970;53.130;8.244;2022-11-14T13:04:55;24.63;;;18.80;;
10166;SDS011;62970;53.130;8.244;2022-11-14T13:07:47;26.40;;;19.43;;
10166;SDS011;62970;53.130;8.244;2022-11-14T13:10:35;24.10;;;18.83;;
10166;SDS011;62970;53.130;8.244;2022-11-14T13:13:08;25.27;;;19.57;;
10166;SDS011;62970;53.130;8.244;2022-11-14T13:15:52;23.93;;;18.87;;
10166;SDS011;62970;53.130;8.244;2022-11-14T13:27:47;23.23;;;18.20;;
10166;SDS011;62970;53.130;8.244;2022-11-14T13:30:26;24.10;;;18.53;;
10166;SDS011;62970;53.130;8.244;2022-11-14T13:33:42;24.57;;;18.07;;
10166;SDS011;62970;53.130;8.244;2022-11-14T13:36:18;25.50;;;18.87;;
10166;SDS011;62970;53.130;8.244;2022-11-14T13:39:10;25.23;;;20.20;;
10166;SDS011;62970;53.130;8.244;2022-11-14T13:45:18;29.03;;;20.37;;
10166;SDS011;62970;53.130;8.244;2022-11-14T13:48:17;27.70;;;20.03;;
10166;SDS011;62970;53.130;8.244;2022-11-14T13:51:14;26.63;;;20.50;;
10166;SDS011;62970;53.130;8.244;2022-11-14T13:53:49;25.23;;;20.17;;
10166;SDS011;62970;53.130;8.244;2022-11-14T13:56:24;23.33;;;18.73;;
10166;SDS011;62970;53.130;8.244;2022-11-14T14:02:29;23.87;;;18.40;;
10166;SDS011;62970;53.130;8.244;2022-11-14T14:05:24;27.33;;;20.70;;
10166;SDS011;62970;53.130;8.244;2022-11-14T14:08:10;27.13;;;21.13;;
10166;SDS011;62970;53.130;8.244;2022-11-14T14:11:19;26.43;;;20.20;;
10166;SDS011;62970;53.130;8.244;2022-11-14T14:14:04;26.40;;;20.33;;
10166;SDS011;62970;53.130;8.244;2022-11-14T14:16:54;26.43;;;20.27;;
10166;SDS011;62970;53.130;8.244;2022-11-14T14:19:37;27.40;;;20.00;;
10166;SDS011;62970;53.130;8.244;2022-11-14T14:22:32;26.13;;;20.27;;
10166;SDS011;62970;53.130;8.244;2022-11-14T14:25:16;27.10;;;20.13;;
10166;SDS011;62970;53.130;8.244;2022-11-14T14:27:59;27.07;;;20.07;;
10166;SDS011;62970;53.130;8.244;2022-11-14T19:15:14;20.17;;;16.27;;
10166;SDS011;62970;53.130;8.244;2022-11-14T19:17:45;22.23;;;18.37;;
10166;SDS011;62970;53.130;8.244;2022-11-14T19:20:16;23.63;;;19.40;;
10166;SDS011;62970;53.130;8.244;2022-11-14T19:22:46;26.83;;;20.60;;
10166;SDS011;62970;53.130;8.244;2022-11-14T19:25:16;23.43;;;20.10;;
10166;SDS011;62970;53.130;8.244;2022-11-14T19:27:52;27.00;;;20.50;;
10166;SDS011;62970;53.130;8.244;2022-11-14T19:30:21;23.37;;;19.70;;
10166;SDS011;62970;53.130;8.244;2022-11-14T19:32:50;23.83;;;20.50;;
10166;SDS011;62970;53.130;8.244;2022-11-14T19:35:21;23.43;;;20.00;;
10166;SDS011;62970;53.130;8.244;2022-11-14T19:37:50;23.83;;;20.47;;
10166;SDS011;62970;53.130;8.244;2022-11-14T19:42:55;25.60;;;20.70;;
10166;SDS011;62970;53.130;8.244;2022-11-14T19:45:26;24.30;;;19.93;;
10166;SDS011;62970;53.130;8.244;2022-11-14T19:47:55;23.40;;;20.50;;
10166;SDS011;62970;53.130;8.244;2022-11-14T19:50:25;24.27;;;20.37;;
10166;SDS011;62970;53.130;8.244;2022-11-14T19:52:54;25.33;;;21.13;;
10166;SDS011;62970;53.130;8.244;2022-11-14T19:55:23;25.23;;;21.73;;
10166;SDS011;62970;53.130;8.244;2022-11-14T19:57:55;22.57;;;20.13;;
10166;SDS011;62970;53.130;8.244;2022-11-14T20:00:26;24.77;;;21.13;;
10166;SDS011;62970;53.130;8.244;2022-11-14T20:02:56;24.40;;;20.90;;
10166;SDS011;62970;53.130;8.244;2022-11-14T20:05:25;23.50;;;19.70;;
10166;SDS011;62970;53.130;8.244;2022-11-14T20:20:24;23.43;;;20.60;;
10166;SDS011;62970;53.130;8.244;2022-11-14T20:45:24;28.90;;;20.97;;
10166;SDS011;62970;53.130;8.244;2022-11-14T20:52:58;21.23;;;18.87;;
10166;SDS011;62970;53.130;8.244;2022-11-14T20:55:27;22.17;;;19.33;;